sensor_id;sensor_type;location;lat;lon;timestamp;temperature;humidity
24152;DHT22;12311;50.866;4.332;2023-04-22T05:19:20;9.60;99.90
24152;DHT22;12311;50.866;4.332;2023-04-22T05:21:47;9.70;99.90
24152;DHT22;12311;50.866;4.332;2023-04-22T05:24:13;9.70;99.90
24152;DHT22;12311;50.866;4.332;2023-04-22T05:26:38;9.70;99.90
24152;DHT22;12311;50.866;4.332;2023-04-22T05:29:04;9.70;99.90
24152;DHT22;12311;50.866;4.332;2023-04-22T05:31:31;9.80;99.90
24152;DHT22;12311;50.866;4.332;2023-04-22T05:33:56;9.70;99.90
24152;DHT22;12311;50.866;4.332;2023-04-22T05:36:22;9.80;99.90
24152;DHT22;12311;50.866;4.332;2023-04-22T05:38:48;9.80;99.90
24152;DHT22;12311;50.866;4.332;2023-04-22T05:41:17;9.90;99.90
24152;DHT22;12311;50.866;4.332;2023-04-22T05:43:42;9.90;99.90
24152;DHT22;12311;50.866;4.332;2023-04-22T05:46:08;9.80;99.90
24152;DHT22;12311;50.866;4.332;2023-04-22T05:48:34;9.90;99.90
24152;DHT22;12311;50.866;4.332;2023-04-22T05:50:59;10.00;99.90
24152;DHT22;12311;50.866;4.332;2023-04-22T05:53:25;10.10;99.90
24152;DHT22;12311;50.866;4.332;2023-04-22T05:55:52;10.20;99.90
24152;DHT22;12311;50.866;4.332;2023-04-22T05:58:17;10.20;99.90
24152;DHT22;12311;50.866;4.332;2023-04-22T06:00:43;10.30;99.90
24152;DHT22;12311;50.866;4.332;2023-04-22T06:03:09;10.30;99.90
24152;DHT22;12311;50.866;4.332;2023-04-22T06:05:34;10.40;99.90
24152;DHT22;12311;50.866;4.332;2023-04-22T06:08:00;10.60;99.90
24152;DHT22;12311;50.866;4.332;2023-04-22T06:10:26;10.70;99.90
24152;DHT22;12311;50.866;4.332;2023-04-22T06:12:51;10.70;99.90
24152;DHT22;12311;50.866;4.332;2023-04-22T06:15:17;10.90;99.90
24152;DHT22;12311;50.866;4.332;2023-04-22T06:17:42;10.80;99.90
24152;DHT22;12311;50.866;4.332;2023-04-22T06:20:09;10.90;99.90
24152;DHT22;12311;50.866;4.332;2023-04-22T06:22:35;10.90;99.90
24152;DHT22;12311;50.866;4.332;2023-04-22T06:25:02;11.00;99.90
24152;DHT22;12311;50.866;4.332;2023-04-22T06:27:28;11.20;99.90
24152;DHT22;12311;50.866;4.332;2023-04-22T06:29:54;11.20;99.90
24152;DHT22;12311;50.866;4.332;2023-04-22T06:32:19;11.30;99.90
24152;DHT22;12311;50.866;4.332;2023-04-22T06:34:45;11.30;99.90
24152;DHT22;12311;50.866;4.332;2023-04-22T06:37:11;11.40;99.90
24152;DHT22;12311;50.866;4.332;2023-04-22T06:39:36;11.40;99.90
24152;DHT22;12311;50.866;4.332;2023-04-22T06:42:02;11.50;99.90
24152;DHT22;12311;50.866;4.332;2023-04-22T06:44:28;11.70;99.90
24152;DHT22;12311;50.866;4.332;2023-04-22T06:46:54;11.60;99.90
24152;DHT22;12311;50.866;4.332;2023-04-22T06:49:20;11.70;99.90
24152;DHT22;12311;50.866;4.332;2023-04-22T06:51:45;11.60;99.90
24152;DHT22;12311;50.866;4.332;2023-04-22T06:54:11;11.70;99.90
24152;DHT22;12311;50.866;4.332;2023-04-22T06:56:37;11.80;99.90
24152;DHT22;12311;50.866;4.332;2023-04-22T06:59:02;11.80;99.90
24152;DHT22;12311;50.866;4.332;2023-04-22T07:01:28;11.90;99.90
24152;DHT22;12311;50.866;4.332;2023-04-22T07:03:54;11.90;99.90
24152;DHT22;12311;50.866;4.332;2023-04-22T07:06:19;12.00;99.90
24152;DHT22;12311;50.866;4.332;2023-04-22T07:08:45;12.10;99.90
24152;DHT22;12311;50.866;4.332;2023-04-22T07:11:11;12.20;99.90
24152;DHT22;12311;50.866;4.332;2023-04-22T07:13:36;12.40;99.90
24152;DHT22;12311;50.866;4.332;2023-04-22T07:16:02;12.60;99.90
24152;DHT22;12311;50.866;4.332;2023-04-22T07:18:28;12.60;99.90
24152;DHT22;12311;50.866;4.332;2023-04-22T07:20:54;12.70;99.90
24152;DHT22;12311;50.866;4.332;2023-04-22T07:23:20;12.60;99.90
24152;DHT22;12311;50.866;4.332;2023-04-22T07:25:45;12.70;99.90
24152;DHT22;12311;50.866;4.332;2023-04-22T07:28:11;12.70;99.90
24152;DHT22;12311;50.866;4.332;2023-04-22T07:30:37;12.60;99.90
24152;DHT22;12311;50.866;4.332;2023-04-22T07:33:06;12.70;99.90
24152;DHT22;12311;50.866;4.332;2023-04-22T07:35:32;12.60;99.90
24152;DHT22;12311;50.866;4.332;2023-04-22T07:37:57;12.50;99.90
24152;DHT22;12311;50.866;4.332;2023-04-22T07:40:23;12.60;99.90
24152;DHT22;12311;50.866;4.332;2023-04-22T07:42:48;12.50;99.90
24152;DHT22;12311;50.866;4.332;2023-04-22T07:45:14;12.50;99.90
24152;DHT22;12311;50.866;4.332;2023-04-22T07:47:40;12.50;99.90
24152;DHT22;12311;50.866;4.332;2023-04-22T07:50:06;12.70;99.90
24152;DHT22;12311;50.866;4.332;2023-04-22T07:52:32;12.90;99.90
24152;DHT22;12311;50.866;4.332;2023-04-22T07:54:57;12.90;99.90
24152;DHT22;12311;50.866;4.332;2023-04-22T07:57:23;13.00;99.90
24152;DHT22;12311;50.866;4.332;2023-04-22T07:59:50;13.30;99.90
24152;DHT22;12311;50.866;4.332;2023-04-22T08:02:16;13.60;99.90
24152;DHT22;12311;50.866;4.332;2023-04-22T08:04:42;13.60;99.90
24152;DHT22;12311;50.866;4.332;2023-04-22T08:07:08;13.70;99.90
24152;DHT22;12311;50.866;4.332;2023-04-22T08:09:34;13.90;99.90
24152;DHT22;12311;50.866;4.332;2023-04-22T08:12:02;13.60;99.90
24152;DHT22;12311;50.866;4.332;2023-04-22T08:14:28;13.70;99.90
24152;DHT22;12311;50.866;4.332;2023-04-22T08:16:54;13.90;99.90
24152;DHT22;12311;50.866;4.332;2023-04-22T08:19:20;14.00;99.90
24152;DHT22;12311;50.866;4.332;2023-04-22T08:21:45;14.20;99.90
24152;DHT22;12311;50.866;4.332;2023-04-22T08:24:13;14.30;99.90
24152;DHT22;12311;50.866;4.332;2023-04-22T08:26:38;14.30;99.90
24152;DHT22;12311;50.866;4.332;2023-04-22T08:29:05;14.30;99.90
24152;DHT22;12311;50.866;4.332;2023-04-22T08:31:32;14.20;99.90
24152;DHT22;12311;50.866;4.332;2023-04-22T08:33:57;14.50;99.90
24152;DHT22;12311;50.866;4.332;2023-04-22T08:36:23;14.40;99.90
24152;DHT22;12311;50.866;4.332;2023-04-22T08:38:51;14.40;99.90
24152;DHT22;12311;50.866;4.332;2023-04-22T08:41:17;14.50;99.90
24152;DHT22;12311;50.866;4.332;2023-04-22T08:43:46;14.70;99.90
24152;DHT22;12311;50.866;4.332;2023-04-22T08:46:12;15.00;99.90
24152;DHT22;12311;50.866;4.332;2023-04-22T08:48:40;14.70;99.90
24152;DHT22;12311;50.866;4.332;2023-04-22T08:51:06;14.80;99.90
24152;DHT22;12311;50.866;4.332;2023-04-22T08:53:32;14.80;99.90
24152;DHT22;12311;50.866;4.332;2023-04-22T08:55:58;14.90;99.90
24152;DHT22;12311;50.866;4.332;2023-04-22T08:58:25;15.30;99.90
24152;DHT22;12311;50.866;4.332;2023-04-22T09:00:54;15.70;99.90
24152;DHT22;12311;50.866;4.332;2023-04-22T09:03:21;16.10;99.90
24152;DHT22;12311;50.866;4.332;2023-04-22T09:05:50;16.20;99.90
24152;DHT22;12311;50.866;4.332;2023-04-22T09:08:17;16.00;99.90
24152;DHT22;12311;50.866;4.332;2023-04-22T09:10:44;16.00;99.90
24152;DHT22;12311;50.866;4.332;2023-04-22T09:13:11;16.20;99.90
24152;DHT22;12311;50.866;4.332;2023-04-22T09:15:37;16.10;99.90
24152;DHT22;12311;50.866;4.332;2023-04-22T09:18:03;15.70;99.90
24152;DHT22;12311;50.866;4.332;2023-04-22T09:20:30;15.60;99.90
24152;DHT22;12311;50.866;4.332;2023-04-22T09:23:00;15.60;99.90
24152;DHT22;12311;50.866;4.332;2023-04-22T09:25:27;15.60;99.90
24152;DHT22;12311;50.866;4.332;2023-04-22T09:27:54;15.50;99.90
24152;DHT22;12311;50.866;4.332;2023-04-22T09:32:56;15.30;99.90
24152;DHT22;12311;50.866;4.332;2023-04-22T09:35:32;15.30;99.90
24152;DHT22;12311;50.866;4.332;2023-04-22T09:38:01;15.00;99.90
24152;DHT22;12311;50.866;4.332;2023-04-22T09:40:27;14.70;99.90
24152;DHT22;12311;50.866;4.332;2023-04-22T09:42:55;14.40;99.90
24152;DHT22;12311;50.866;4.332;2023-04-22T09:45:40;14.10;99.90
24152;DHT22;12311;50.866;4.332;2023-04-22T09:48:11;13.90;99.90
24152;DHT22;12311;50.866;4.332;2023-04-22T09:50:38;13.70;99.90
24152;DHT22;12311;50.866;4.332;2023-04-22T09:53:06;13.30;99.90
24152;DHT22;12311;50.866;4.332;2023-04-22T09:55:38;13.00;99.90
24152;DHT22;12311;50.866;4.332;2023-04-22T09:58:13;12.90;99.90
24152;DHT22;12311;50.866;4.332;2023-04-22T10:00:49;12.90;99.90
24152;DHT22;12311;50.866;4.332;2023-04-22T10:03:15;13.00;99.90
24152;DHT22;12311;50.866;4.332;2023-04-22T10:05:41;13.10;99.90
24152;DHT22;12311;50.866;4.332;2023-04-22T10:08:09;13.00;99.90
24152;DHT22;12311;50.866;4.332;2023-04-22T10:10:36;12.90;99.90
24152;DHT22;12311;50.866;4.332;2023-04-22T10:13:02;12.80;99.90
24152;DHT22;12311;50.866;4.332;2023-04-22T10:15:38;12.90;99.90
24152;DHT22;12311;50.866;4.332;2023-04-22T10:18:07;12.90;99.90
24152;DHT22;12311;50.866;4.332;2023-04-22T10:20:39;12.90;99.90
24152;DHT22;12311;50.866;4.332;2023-04-22T10:23:14;13.00;99.90
24152;DHT22;12311;50.866;4.332;2023-04-22T10:25:46;13.00;99.90
24152;DHT22;12311;50.866;4.332;2023-04-22T10:28:15;13.00;99.90
24152;DHT22;12311;50.866;4.332;2023-04-22T10:30:41;13.00;99.90
24152;DHT22;12311;50.866;4.332;2023-04-22T10:41:30;13.10;99.90
24152;DHT22;12311;50.866;4.332;2023-04-22T10:44:06;13.10;99.90
24152;DHT22;12311;50.866;4.332;2023-04-22T10:48:58;13.20;99.90
24152;DHT22;12311;50.866;4.332;2023-04-22T10:51:44;13.30;99.90
24152;DHT22;12311;50.866;4.332;2023-04-22T10:59:33;13.50;99.90
24152;DHT22;12311;50.866;4.332;2023-04-22T11:02:05;13.60;99.90
24152;DHT22;12311;50.866;4.332;2023-04-22T11:04:31;13.70;99.90
24152;DHT22;12311;50.866;4.332;2023-04-22T11:10:07;13.60;99.90
24152;DHT22;12311;50.866;4.332;2023-04-22T11:17:43;13.40;99.90
24152;DHT22;12311;50.866;4.332;2023-04-22T11:20:10;13.30;99.90
24152;DHT22;12311;50.866;4.332;2023-04-22T11:22:40;13.20;99.90
24152;DHT22;12311;50.866;4.332;2023-04-22T11:25:06;13.10;99.90
24152;DHT22;12311;50.866;4.332;2023-04-22T11:27:34;13.20;99.90
24152;DHT22;12311;50.866;4.332;2023-04-22T11:30:05;13.30;99.90
24152;DHT22;12311;50.866;4.332;2023-04-22T11:32:33;13.30;99.90
24152;DHT22;12311;50.866;4.332;2023-04-22T11:35:02;13.40;99.90
24152;DHT22;12311;50.866;4.332;2023-04-22T11:37:40;13.30;99.90
24152;DHT22;12311;50.866;4.332;2023-04-22T11:40:11;13.20;99.90
24152;DHT22;12311;50.866;4.332;2023-04-22T11:42:37;13.10;99.90
24152;DHT22;12311;50.866;4.332;2023-04-22T11:45:04;13.20;99.90
24152;DHT22;12311;50.866;4.332;2023-04-22T11:47:30;13.10;99.90
24152;DHT22;12311;50.866;4.332;2023-04-22T11:50:07;13.00;99.90
24152;DHT22;12311;50.866;4.332;2023-04-22T11:53:03;13.00;99.90
24152;DHT22;12311;50.866;4.332;2023-04-22T11:55:34;13.10;99.90
24152;DHT22;12311;50.866;4.332;2023-04-22T11:58:12;13.10;99.90
24152;DHT22;12311;50.866;4.332;2023-04-22T12:00:45;13.00;99.90
24152;DHT22;12311;50.866;4.332;2023-04-22T12:03:13;13.10;99.90
24152;DHT22;12311;50.866;4.332;2023-04-22T12:08:08;13.00;99.90
24152;DHT22;12311;50.866;4.332;2023-04-22T12:10:39;13.00;99.90
24152;DHT22;12311;50.866;4.332;2023-04-22T12:13:05;13.00;99.90
24152;DHT22;12311;50.866;4.332;2023-04-22T12:15:38;13.20;99.90
24152;DHT22;12311;50.866;4.332;2023-04-22T12:18:04;13.10;99.90
24152;DHT22;12311;50.866;4.332;2023-04-22T12:20:35;13.00;99.90
24152;DHT22;12311;50.866;4.332;2023-04-22T12:23:02;13.10;99.90
24152;DHT22;12311;50.866;4.332;2023-04-22T12:25:28;13.20;99.90
24152;DHT22;12311;50.866;4.332;2023-04-22T12:27:55;13.20;99.90
24152;DHT22;12311;50.866;4.332;2023-04-22T12:30:22;13.10;99.90
24152;DHT22;12311;50.866;4.332;2023-04-22T12:32:49;13.20;99.90
24152;DHT22;12311;50.866;4.332;2023-04-22T12:35:15;13.20;99.90
24152;DHT22;12311;50.866;4.332;2023-04-22T12:37:41;13.20;99.90
24152;DHT22;12311;50.866;4.332;2023-04-22T12:40:08;13.40;99.90
24152;DHT22;12311;50.866;4.332;2023-04-22T12:42:34;13.40;99.90
24152;DHT22;12311;50.866;4.332;2023-04-22T12:45:01;13.60;99.90
24152;DHT22;12311;50.866;4.332;2023-04-22T12:47:27;13.60;99.90
24152;DHT22;12311;50.866;4.332;2023-04-22T12:49:52;13.60;99.90
24152;DHT22;12311;50.866;4.332;2023-04-22T12:52:18;13.40;99.90
24152;DHT22;12311;50.866;4.332;2023-04-22T12:54:44;13.30;99.90
24152;DHT22;12311;50.866;4.332;2023-04-22T12:57:10;13.30;99.90
24152;DHT22;12311;50.866;4.332;2023-04-22T12:59:36;13.40;99.90
24152;DHT22;12311;50.866;4.332;2023-04-22T13:02:02;13.50;99.90
24152;DHT22;12311;50.866;4.332;2023-04-22T13:04:27;13.60;99.90
24152;DHT22;12311;50.866;4.332;2023-04-22T13:06:53;13.60;99.90
24152;DHT22;12311;50.866;4.332;2023-04-22T13:09:24;13.60;99.90
24152;DHT22;12311;50.866;4.332;2023-04-22T13:11:51;13.60;99.90
24152;DHT22;12311;50.866;4.332;2023-04-22T13:14:16;13.50;99.90
24152;DHT22;12311;50.866;4.332;2023-04-22T13:16:42;13.40;99.90
24152;DHT22;12311;50.866;4.332;2023-04-22T13:19:08;13.60;99.90
24152;DHT22;12311;50.866;4.332;2023-04-22T13:21:34;13.60;99.90
24152;DHT22;12311;50.866;4.332;2023-04-22T13:24:00;13.60;99.90
24152;DHT22;12311;50.866;4.332;2023-04-22T13:26:25;13.50;99.90
24152;DHT22;12311;50.866;4.332;2023-04-22T13:28:51;13.60;99.90
24152;DHT22;12311;50.866;4.332;2023-04-22T13:31:17;13.50;99.90
24152;DHT22;12311;50.866;4.332;2023-04-22T13:33:43;13.50;99.90
24152;DHT22;12311;50.866;4.332;2023-04-22T13:36:10;13.40;99.90
24152;DHT22;12311;50.866;4.332;2023-04-22T13:38:35;13.10;99.90
24152;DHT22;12311;50.866;4.332;2023-04-22T13:41:01;13.00;99.90
24152;DHT22;12311;50.866;4.332;2023-04-22T13:43:27;12.90;99.90
24152;DHT22;12311;50.866;4.332;2023-04-22T13:45:52;12.90;99.90
24152;DHT22;12311;50.866;4.332;2023-04-22T13:48:18;13.00;99.90
24152;DHT22;12311;50.866;4.332;2023-04-22T13:50:44;13.00;99.90
24152;DHT22;12311;50.866;4.332;2023-04-22T13:53:10;13.00;99.90
24152;DHT22;12311;50.866;4.332;2023-04-22T13:55:38;13.10;99.90
24152;DHT22;12311;50.866;4.332;2023-04-22T13:58:04;13.10;99.90
24152;DHT22;12311;50.866;4.332;2023-04-22T14:00:32;13.10;99.90
24152;DHT22;12311;50.866;4.332;2023-04-22T14:02:58;12.90;99.90
24152;DHT22;12311;50.866;4.332;2023-04-22T14:05:24;12.90;99.90
24152;DHT22;12311;50.866;4.332;2023-04-22T14:07:49;12.80;99.90
24152;DHT22;12311;50.866;4.332;2023-04-22T14:10:16;12.80;99.90
24152;DHT22;12311;50.866;4.332;2023-04-22T14:12:45;12.70;99.90
24152;DHT22;12311;50.866;4.332;2023-04-22T14:15:11;12.60;99.90
24152;DHT22;12311;50.866;4.332;2023-04-22T14:17:37;12.50;99.90
24152;DHT22;12311;50.866;4.332;2023-04-22T14:20:03;12.40;99.90
24152;DHT22;12311;50.866;4.332;2023-04-22T14:22:30;12.40;99.90
24152;DHT22;12311;50.866;4.332;2023-04-22T14:24:55;12.30;99.90
24152;DHT22;12311;50.866;4.332;2023-04-22T14:27:21;12.20;99.90
24152;DHT22;12311;50.866;4.332;2023-04-22T14:29:47;12.00;99.90
24152;DHT22;12311;50.866;4.332;2023-04-22T14:32:17;11.90;99.90
24152;DHT22;12311;50.866;4.332;2023-04-22T14:34:43;12.00;99.90
24152;DHT22;12311;50.866;4.332;2023-04-22T14:37:10;11.90;99.90
24152;DHT22;12311;50.866;4.332;2023-04-22T14:39:35;11.70;99.90
24152;DHT22;12311;50.866;4.332;2023-04-22T14:42:02;11.70;99.90
24152;DHT22;12311;50.866;4.332;2023-04-22T14:44:28;11.80;99.90
24152;DHT22;12311;50.866;4.332;2023-04-22T14:46:53;11.70;99.90
24152;DHT22;12311;50.866;4.332;2023-04-22T14:49:19;11.60;99.90
24152;DHT22;12311;50.866;4.332;2023-04-22T14:51:46;11.60;99.90
24152;DHT22;12311;50.866;4.332;2023-04-22T14:54:11;11.50;99.90
24152;DHT22;12311;50.866;4.332;2023-04-22T14:56:38;11.60;99.90
24152;DHT22;12311;50.866;4.332;2023-04-22T14:59:03;11.70;99.90
24152;DHT22;12311;50.866;4.332;2023-04-22T15:01:30;11.80;99.90
24152;DHT22;12311;50.866;4.332;2023-04-22T15:03:56;11.90;99.90
24152;DHT22;12311;50.866;4.332;2023-04-22T15:06:22;11.90;99.90
24152;DHT22;12311;50.866;4.332;2023-04-22T15:08:49;11.90;99.90
24152;DHT22;12311;50.866;4.332;2023-04-22T15:11:18;11.80;99.90
24152;DHT22;12311;50.866;4.332;2023-04-22T15:13:44;11.90;99.90
24152;DHT22;12311;50.866;4.332;2023-04-22T15:16:10;11.80;99.90
24152;DHT22;12311;50.866;4.332;2023-04-22T15:18:37;11.60;99.90
24152;DHT22;12311;50.866;4.332;2023-04-22T15:21:02;11.60;99.90
24152;DHT22;12311;50.866;4.332;2023-04-22T15:23:30;11.70;99.90
24152;DHT22;12311;50.866;4.332;2023-04-22T15:25:55;11.80;99.90
24152;DHT22;12311;50.866;4.332;2023-04-22T15:28:21;12.00;99.90
24152;DHT22;12311;50.866;4.332;2023-04-22T15:30:48;12.00;99.90
24152;DHT22;12311;50.866;4.332;2023-04-22T15:33:14;12.10;99.90
24152;DHT22;12311;50.866;4.332;2023-04-22T15:35:40;12.40;99.90
24152;DHT22;12311;50.866;4.332;2023-04-22T15:38:09;12.40;99.90
24152;DHT22;12311;50.866;4.332;2023-04-22T15:40:35;12.50;99.90
24152;DHT22;12311;50.866;4.332;2023-04-22T15:43:00;12.60;99.90
24152;DHT22;12311;50.866;4.332;2023-04-22T15:45:26;12.60;99.90
24152;DHT22;12311;50.866;4.332;2023-04-22T15:47:52;12.60;99.90
24152;DHT22;12311;50.866;4.332;2023-04-22T15:50:18;12.30;99.90
24152;DHT22;12311;50.866;4.332;2023-04-22T15:52:44;12.30;99.90
24152;DHT22;12311;50.866;4.332;2023-04-22T15:55:10;12.30;99.90
24152;DHT22;12311;50.866;4.332;2023-04-22T15:57:36;12.20;99.90
24152;DHT22;12311;50.866;4.332;2023-04-22T16:00:04;12.10;99.90
24152;DHT22;12311;50.866;4.332;2023-04-22T16:02:35;12.20;99.90
24152;DHT22;12311;50.866;4.332;2023-04-22T16:05:01;11.90;99.90
24152;DHT22;12311;50.866;4.332;2023-04-22T16:07:27;12.00;99.90
24152;DHT22;12311;50.866;4.332;2023-04-22T16:09:52;12.00;99.90
24152;DHT22;12311;50.866;4.332;2023-04-22T16:12:18;11.90;99.90
24152;DHT22;12311;50.866;4.332;2023-04-22T16:14:46;11.90;99.90
24152;DHT22;12311;50.866;4.332;2023-04-22T16:17:12;12.10;99.90
24152;DHT22;12311;50.866;4.332;2023-04-22T16:19:38;12.10;99.90
24152;DHT22;12311;50.866;4.332;2023-04-22T16:22:04;12.10;99.90
24152;DHT22;12311;50.866;4.332;2023-04-22T16:24:30;12.00;99.90
24152;DHT22;12311;50.866;4.332;2023-04-22T16:26:56;12.10;99.90
24152;DHT22;12311;50.866;4.332;2023-04-22T16:29:23;12.00;99.90
24152;DHT22;12311;50.866;4.332;2023-04-22T16:31:49;12.00;99.90
24152;DHT22;12311;50.866;4.332;2023-04-22T16:34:15;11.90;99.90
24152;DHT22;12311;50.866;4.332;2023-04-22T16:36:40;11.80;99.90
24152;DHT22;12311;50.866;4.332;2023-04-22T16:39:06;11.70;99.90
24152;DHT22;12311;50.866;4.332;2023-04-22T16:41:33;11.70;99.90
24152;DHT22;12311;50.866;4.332;2023-04-22T16:43:59;11.70;99.90
24152;DHT22;12311;50.866;4.332;2023-04-22T16:46:25;11.70;99.90
24152;DHT22;12311;50.866;4.332;2023-04-22T16:48:51;11.70;99.90
24152;DHT22;12311;50.866;4.332;2023-04-22T16:51:17;11.70;99.90
24152;DHT22;12311;50.866;4.332;2023-04-22T16:53:43;11.80;99.90
24152;DHT22;12311;50.866;4.332;2023-04-22T16:56:09;11.70;99.90
24152;DHT22;12311;50.866;4.332;2023-04-22T16:58:35;11.70;99.90
24152;DHT22;12311;50.866;4.332;2023-04-22T17:01:02;11.70;99.90
24152;DHT22;12311;50.866;4.332;2023-04-22T17:03:28;11.90;99.90
24152;DHT22;12311;50.866;4.332;2023-04-22T17:05:53;12.00;99.90
24152;DHT22;12311;50.866;4.332;2023-04-22T17:08:19;12.00;99.90
24152;DHT22;12311;50.866;4.332;2023-04-22T17:10:45;12.00;99.90
24152;DHT22;12311;50.866;4.332;2023-04-22T17:13:13;12.00;99.90
24152;DHT22;12311;50.866;4.332;2023-04-22T17:15:39;12.10;99.90
24152;DHT22;12311;50.866;4.332;2023-04-22T17:18:05;12.00;99.90
24152;DHT22;12311;50.866;4.332;2023-04-22T17:20:33;12.10;99.90
24152;DHT22;12311;50.866;4.332;2023-04-22T17:23:00;12.20;99.90
24152;DHT22;12311;50.866;4.332;2023-04-22T17:25:26;12.20;99.90
24152;DHT22;12311;50.866;4.332;2023-04-22T17:27:51;12.30;99.90
24152;DHT22;12311;50.866;4.332;2023-04-22T17:30:17;12.30;99.90
24152;DHT22;12311;50.866;4.332;2023-04-22T17:32:43;12.30;99.90
24152;DHT22;12311;50.866;4.332;2023-04-22T17:35:09;12.30;99.90
24152;DHT22;12311;50.866;4.332;2023-04-22T17:37:34;12.20;99.90
24152;DHT22;12311;50.866;4.332;2023-04-22T17:40:00;12.30;99.90
24152;DHT22;12311;50.866;4.332;2023-04-22T17:42:27;12.30;99.90
24152;DHT22;12311;50.866;4.332;2023-04-22T17:44:53;12.20;99.90
24152;DHT22;12311;50.866;4.332;2023-04-22T17:47:18;12.00;99.90
24152;DHT22;12311;50.866;4.332;2023-04-22T17:49:44;11.90;99.90
24152;DHT22;12311;50.866;4.332;2023-04-22T17:52:10;12.00;99.90
24152;DHT22;12311;50.866;4.332;2023-04-22T17:54:36;11.90;99.90
24152;DHT22;12311;50.866;4.332;2023-04-22T17:57:01;11.80;99.90
24152;DHT22;12311;50.866;4.332;2023-04-22T17:59:28;11.80;99.90
24152;DHT22;12311;50.866;4.332;2023-04-22T18:01:53;11.90;99.90
24152;DHT22;12311;50.866;4.332;2023-04-22T18:04:19;11.90;99.90
24152;DHT22;12311;50.866;4.332;2023-04-22T18:06:45;12.00;99.90
24152;DHT22;12311;50.866;4.332;2023-04-22T18:09:11;12.00;99.90
24152;DHT22;12311;50.866;4.332;2023-04-22T18:11:37;11.90;99.90
24152;DHT22;12311;50.866;4.332;2023-04-22T18:14:03;12.00;99.90
24152;DHT22;12311;50.866;4.332;2023-04-22T18:16:28;12.20;99.90
24152;DHT22;12311;50.866;4.332;2023-04-22T18:18:54;12.20;99.90
24152;DHT22;12311;50.866;4.332;2023-04-22T18:21:20;12.10;99.90
24152;DHT22;12311;50.866;4.332;2023-04-22T18:23:45;12.00;99.90
24152;DHT22;12311;50.866;4.332;2023-04-22T18:26:11;11.90;99.90
24152;DHT22;12311;50.866;4.332;2023-04-22T18:28:37;11.80;99.90
24152;DHT22;12311;50.866;4.332;2023-04-22T18:31:06;11.80;99.90
24152;DHT22;12311;50.866;4.332;2023-04-22T18:33:32;11.70;99.90
24152;DHT22;12311;50.866;4.332;2023-04-22T18:35:58;11.70;99.90
24152;DHT22;12311;50.866;4.332;2023-04-22T18:38:24;11.60;99.90
24152;DHT22;12311;50.866;4.332;2023-04-22T18:40:52;11.50;99.90
24152;DHT22;12311;50.866;4.332;2023-04-22T18:43:18;11.30;99.90
24152;DHT22;12311;50.866;4.332;2023-04-22T18:45:43;11.30;99.90
24152;DHT22;12311;50.866;4.332;2023-04-22T18:48:09;11.20;99.90
24152;DHT22;12311;50.866;4.332;2023-04-22T18:50:35;11.20;99.90
24152;DHT22;12311;50.866;4.332;2023-04-22T18:53:01;11.10;99.90
24152;DHT22;12311;50.866;4.332;2023-04-22T18:55:26;11.10;99.90
24152;DHT22;12311;50.866;4.332;2023-04-22T18:57:52;11.00;99.90
24152;DHT22;12311;50.866;4.332;2023-04-22T19:00:18;11.00;99.90
24152;DHT22;12311;50.866;4.332;2023-04-22T19:02:44;11.00;99.90
24152;DHT22;12311;50.866;4.332;2023-04-22T19:05:10;10.90;99.90
24152;DHT22;12311;50.866;4.332;2023-04-22T19:07:39;10.80;99.90
24152;DHT22;12311;50.866;4.332;2023-04-22T19:10:06;10.90;99.90
24152;DHT22;12311;50.866;4.332;2023-04-22T19:12:32;10.90;99.90
24152;DHT22;12311;50.866;4.332;2023-04-22T19:14:57;10.80;99.90
24152;DHT22;12311;50.866;4.332;2023-04-22T19:17:25;10.80;99.90
24152;DHT22;12311;50.866;4.332;2023-04-22T19:19:51;10.70;99.90
24152;DHT22;12311;50.866;4.332;2023-04-22T19:22:18;10.80;99.90
24152;DHT22;12311;50.866;4.332;2023-04-22T19:24:44;10.80;99.90
24152;DHT22;12311;50.866;4.332;2023-04-22T19:27:10;10.70;99.90
24152;DHT22;12311;50.866;4.332;2023-04-22T19:29:42;10.60;99.90
24152;DHT22;12311;50.866;4.332;2023-04-22T19:32:09;10.60;99.90
24152;DHT22;12311;50.866;4.332;2023-04-22T19:34:36;10.50;99.90
24152;DHT22;12311;50.866;4.332;2023-04-22T19:37:02;10.50;99.90
24152;DHT22;12311;50.866;4.332;2023-04-22T19:39:31;10.50;99.90
24152;DHT22;12311;50.866;4.332;2023-04-22T19:41:57;10.60;99.90
24152;DHT22;12311;50.866;4.332;2023-04-22T19:44:27;10.50;99.90
24152;DHT22;12311;50.866;4.332;2023-04-22T19:46:55;10.50;99.90
24152;DHT22;12311;50.866;4.332;2023-04-22T19:49:21;10.50;99.90
24152;DHT22;12311;50.866;4.332;2023-04-22T19:51:47;10.50;99.90
24152;DHT22;12311;50.866;4.332;2023-04-22T19:54:15;10.40;99.90
24152;DHT22;12311;50.866;4.332;2023-04-22T19:56:41;10.40;99.90
24152;DHT22;12311;50.866;4.332;2023-04-22T19:59:07;10.40;99.90
24152;DHT22;12311;50.866;4.332;2023-04-22T20:01:34;10.40;99.90
24152;DHT22;12311;50.866;4.332;2023-04-22T20:04:00;10.50;99.90
24152;DHT22;12311;50.866;4.332;2023-04-22T20:06:28;10.50;99.90
24152;DHT22;12311;50.866;4.332;2023-04-22T20:08:55;10.40;99.90
24152;DHT22;12311;50.866;4.332;2023-04-22T20:11:23;10.40;99.90
24152;DHT22;12311;50.866;4.332;2023-04-22T20:13:54;10.50;99.90
24152;DHT22;12311;50.866;4.332;2023-04-22T20:16:21;10.50;99.90
24152;DHT22;12311;50.866;4.332;2023-04-22T20:18:50;10.40;99.90
